sensor_id;sensor_type;location;lat;lon;timestamp;temperature;humidity
5276;DHT22;2661;50.786;12.728;2023-03-20T00:01:48;6.20;1.00
5276;DHT22;2661;50.786;12.728;2023-03-20T00:04:14;6.20;1.00
5276;DHT22;2661;50.786;12.728;2023-03-20T00:06:41;6.20;1.00
5276;DHT22;2661;50.786;12.728;2023-03-20T00:09:08;6.20;1.00
5276;DHT22;2661;50.786;12.728;2023-03-20T00:11:45;6.20;1.00
5276;DHT22;2661;50.786;12.728;2023-03-20T00:14:13;6.20;1.00
5276;DHT22;2661;50.786;12.728;2023-03-20T00:16:42;6.20;1.00
5276;DHT22;2661;50.786;12.728;2023-03-20T00:19:16;6.20;1.00
5276;DHT22;2661;50.786;12.728;2023-03-20T00:21:44;6.20;1.00
5276;DHT22;2661;50.786;12.728;2023-03-20T00:24:13;6.20;1.00
5276;DHT22;2661;50.786;12.728;2023-03-20T00:26:41;6.20;1.00
5276;DHT22;2661;50.786;12.728;2023-03-20T00:29:09;6.30;1.00
5276;DHT22;2661;50.786;12.728;2023-03-20T00:31:37;6.30;1.00
5276;DHT22;2661;50.786;12.728;2023-03-20T00:34:08;6.40;1.00
5276;DHT22;2661;50.786;12.728;2023-03-20T00:36:35;6.40;1.00
5276;DHT22;2661;50.786;12.728;2023-03-20T00:39:02;6.40;1.00
5276;DHT22;2661;50.786;12.728;2023-03-20T00:44:19;6.40;1.00
5276;DHT22;2661;50.786;12.728;2023-03-20T00:46:53;6.40;1.00
5276;DHT22;2661;50.786;12.728;2023-03-20T00:49:21;6.40;1.00
5276;DHT22;2661;50.786;12.728;2023-03-20T00:51:49;6.40;1.00
5276;DHT22;2661;50.786;12.728;2023-03-20T00:54:16;6.40;1.00
5276;DHT22;2661;50.786;12.728;2023-03-20T00:56:57;6.40;1.00
5276;DHT22;2661;50.786;12.728;2023-03-20T00:59:25;6.50;1.00
5276;DHT22;2661;50.786;12.728;2023-03-20T01:01:53;6.50;2.90
5276;DHT22;2661;50.786;12.728;2023-03-20T01:04:20;6.50;77.50
5276;DHT22;2661;50.786;12.728;2023-03-20T01:06:46;6.50;99.90
5276;DHT22;2661;50.786;12.728;2023-03-20T01:09:13;6.50;99.90
5276;DHT22;2661;50.786;12.728;2023-03-20T01:11:40;6.50;99.90
5276;DHT22;2661;50.786;12.728;2023-03-20T01:14:10;6.50;99.90
5276;DHT22;2661;50.786;12.728;2023-03-20T01:16:37;6.50;99.90
5276;DHT22;2661;50.786;12.728;2023-03-20T01:19:04;6.50;1.00
5276;DHT22;2661;50.786;12.728;2023-03-20T01:21:30;6.50;99.90
5276;DHT22;2661;50.786;12.728;2023-03-20T01:23:57;6.50;99.90
5276;DHT22;2661;50.786;12.728;2023-03-20T01:26:31;6.50;99.90
5276;DHT22;2661;50.786;12.728;2023-03-20T01:28:59;6.50;99.90
5276;DHT22;2661;50.786;12.728;2023-03-20T01:31:25;6.50;1.00
5276;DHT22;2661;50.786;12.728;2023-03-20T01:33:52;6.60;99.90
5276;DHT22;2661;50.786;12.728;2023-03-20T01:36:20;6.60;99.90
5276;DHT22;2661;50.786;12.728;2023-03-20T01:38:49;6.60;1.00
5276;DHT22;2661;50.786;12.728;2023-03-20T01:41:19;6.60;1.00
5276;DHT22;2661;50.786;12.728;2023-03-20T01:43:46;6.60;1.00
5276;DHT22;2661;50.786;12.728;2023-03-20T01:46:14;6.60;1.00
5276;DHT22;2661;50.786;12.728;2023-03-20T01:51:18;6.60;1.00
5276;DHT22;2661;50.786;12.728;2023-03-20T01:53:44;6.60;1.00
5276;DHT22;2661;50.786;12.728;2023-03-20T01:56:13;6.70;99.90
5276;DHT22;2661;50.786;12.728;2023-03-20T01:58:41;6.70;1.00
5276;DHT22;2661;50.786;12.728;2023-03-20T02:01:10;6.70;1.00
5276;DHT22;2661;50.786;12.728;2023-03-20T02:03:37;6.70;1.00
5276;DHT22;2661;50.786;12.728;2023-03-20T02:06:04;6.70;1.00
5276;DHT22;2661;50.786;12.728;2023-03-20T02:08:31;6.70;1.00
5276;DHT22;2661;50.786;12.728;2023-03-20T02:11:02;6.70;1.00
5276;DHT22;2661;50.786;12.728;2023-03-20T02:13:29;6.70;1.00
5276;DHT22;2661;50.786;12.728;2023-03-20T02:16:03;6.80;1.00
5276;DHT22;2661;50.786;12.728;2023-03-20T02:18:31;6.80;1.00
5276;DHT22;2661;50.786;12.728;2023-03-20T02:23:39;6.80;68.20
5276;DHT22;2661;50.786;12.728;2023-03-20T02:31:53;6.80;99.90
5276;DHT22;2661;50.786;12.728;2023-03-20T02:34:37;6.80;99.90
5276;DHT22;2661;50.786;12.728;2023-03-20T02:40:00;6.80;99.90
5276;DHT22;2661;50.786;12.728;2023-03-20T02:47:36;6.80;99.90
5276;DHT22;2661;50.786;12.728;2023-03-20T02:50:26;6.80;99.90
5276;DHT22;2661;50.786;12.728;2023-03-20T02:55:42;6.80;99.90
5276;DHT22;2661;50.786;12.728;2023-03-20T02:58:13;6.80;99.90
5276;DHT22;2661;50.786;12.728;2023-03-20T03:00:54;6.80;99.90
5276;DHT22;2661;50.786;12.728;2023-03-20T03:03:32;6.80;1.00
5276;DHT22;2661;50.786;12.728;2023-03-20T03:06:05;6.80;1.00
5276;DHT22;2661;50.786;12.728;2023-03-20T03:08:34;6.80;1.00
5276;DHT22;2661;50.786;12.728;2023-03-20T03:11:06;6.80;1.00
5276;DHT22;2661;50.786;12.728;2023-03-20T03:13:38;6.80;1.00
5276;DHT22;2661;50.786;12.728;2023-03-20T03:16:06;6.70;1.00
5276;DHT22;2661;50.786;12.728;2023-03-20T03:18:34;6.70;1.00
5276;DHT22;2661;50.786;12.728;2023-03-20T03:21:03;6.60;1.00
5276;DHT22;2661;50.786;12.728;2023-03-20T03:23:35;6.60;1.00
5276;DHT22;2661;50.786;12.728;2023-03-20T03:26:05;6.50;1.00
5276;DHT22;2661;50.786;12.728;2023-03-20T03:28:42;6.50;1.00
5276;DHT22;2661;50.786;12.728;2023-03-20T03:31:13;6.40;1.00
5276;DHT22;2661;50.786;12.728;2023-03-20T03:33:41;6.40;99.90
5276;DHT22;2661;50.786;12.728;2023-03-20T03:38:39;6.30;1.00
5276;DHT22;2661;50.786;12.728;2023-03-20T03:43:40;6.20;99.90
5276;DHT22;2661;50.786;12.728;2023-03-20T03:46:13;6.20;91.80
5276;DHT22;2661;50.786;12.728;2023-03-20T03:48:49;6.10;1.00
5276;DHT22;2661;50.786;12.728;2023-03-20T03:51:20;6.10;1.00
5276;DHT22;2661;50.786;12.728;2023-03-20T03:53:49;6.00;6.70
5276;DHT22;2661;50.786;12.728;2023-03-20T03:56:19;5.90;99.90
5276;DHT22;2661;50.786;12.728;2023-03-20T03:58:47;5.90;1.00
5276;DHT22;2661;50.786;12.728;2023-03-20T04:01:15;5.80;1.00
5276;DHT22;2661;50.786;12.728;2023-03-20T04:03:47;5.80;1.00
5276;DHT22;2661;50.786;12.728;2023-03-20T04:06:15;5.70;1.00
5276;DHT22;2661;50.786;12.728;2023-03-20T04:08:42;5.70;1.00
5276;DHT22;2661;50.786;12.728;2023-03-20T04:11:15;5.70;1.00
5276;DHT22;2661;50.786;12.728;2023-03-20T04:13:43;5.60;1.00
5276;DHT22;2661;50.786;12.728;2023-03-20T04:16:11;5.50;1.00
5276;DHT22;2661;50.786;12.728;2023-03-20T04:18:39;5.50;1.00
5276;DHT22;2661;50.786;12.728;2023-03-20T04:21:06;5.40;1.00
5276;DHT22;2661;50.786;12.728;2023-03-20T04:23:33;5.40;1.00
5276;DHT22;2661;50.786;12.728;2023-03-20T04:26:00;5.40;1.00
5276;DHT22;2661;50.786;12.728;2023-03-20T04:28:27;5.30;1.00
5276;DHT22;2661;50.786;12.728;2023-03-20T04:30:54;5.20;1.00
5276;DHT22;2661;50.786;12.728;2023-03-20T04:33:21;5.20;1.00
5276;DHT22;2661;50.786;12.728;2023-03-20T04:35:48;5.20;99.90
5276;DHT22;2661;50.786;12.728;2023-03-20T04:38:15;5.30;1.00
5276;DHT22;2661;50.786;12.728;2023-03-20T04:40:43;5.30;1.00
5276;DHT22;2661;50.786;12.728;2023-03-20T04:43:10;5.10;1.00
5276;DHT22;2661;50.786;12.728;2023-03-20T04:45:37;5.10;1.00
5276;DHT22;2661;50.786;12.728;2023-03-20T04:48:04;5.00;1.00
5276;DHT22;2661;50.786;12.728;2023-03-20T04:50:31;4.90;1.00
5276;DHT22;2661;50.786;12.728;2023-03-20T04:52:57;4.90;39.10
5276;DHT22;2661;50.786;12.728;2023-03-20T04:55:24;4.80;99.90
5276;DHT22;2661;50.786;12.728;2023-03-20T04:57:51;4.80;97.10
5276;DHT22;2661;50.786;12.728;2023-03-20T05:00:17;4.80;99.90
5276;DHT22;2661;50.786;12.728;2023-03-20T05:02:44;4.80;48.90
5276;DHT22;2661;50.786;12.728;2023-03-20T05:05:11;4.80;1.00
5276;DHT22;2661;50.786;12.728;2023-03-20T05:07:37;4.90;1.00
5276;DHT22;2661;50.786;12.728;2023-03-20T05:10:04;5.00;99.90
5276;DHT22;2661;50.786;12.728;2023-03-20T05:12:30;5.00;1.00
5276;DHT22;2661;50.786;12.728;2023-03-20T05:14:57;5.10;86.40
5276;DHT22;2661;50.786;12.728;2023-03-20T05:17:23;5.10;1.00
5276;DHT22;2661;50.786;12.728;2023-03-20T05:19:50;5.10;1.00
5276;DHT22;2661;50.786;12.728;2023-03-20T05:22:17;5.00;1.00
5276;DHT22;2661;50.786;12.728;2023-03-20T05:24:44;5.10;45.10
5276;DHT22;2661;50.786;12.728;2023-03-20T05:27:10;5.10;75.30
5276;DHT22;2661;50.786;12.728;2023-03-20T05:29:37;5.10;40.20
5276;DHT22;2661;50.786;12.728;2023-03-20T05:32:03;5.10;99.90
5276;DHT22;2661;50.786;12.728;2023-03-20T05:34:30;5.20;1.00
5276;DHT22;2661;50.786;12.728;2023-03-20T05:36:57;5.30;1.00
5276;DHT22;2661;50.786;12.728;2023-03-20T05:39:23;5.30;32.40
5276;DHT22;2661;50.786;12.728;2023-03-20T05:41:50;5.40;99.90
5276;DHT22;2661;50.786;12.728;2023-03-20T05:44:16;5.40;1.00
5276;DHT22;2661;50.786;12.728;2023-03-20T05:46:43;5.50;1.00
5276;DHT22;2661;50.786;12.728;2023-03-20T05:49:09;5.60;99.90
5276;DHT22;2661;50.786;12.728;2023-03-20T05:51:36;5.60;81.80
5276;DHT22;2661;50.786;12.728;2023-03-20T05:54:03;5.70;71.40
5276;DHT22;2661;50.786;12.728;2023-03-20T05:56:30;5.70;99.90
5276;DHT22;2661;50.786;12.728;2023-03-20T05:58:56;5.80;99.90
5276;DHT22;2661;50.786;12.728;2023-03-20T06:01:23;5.90;1.00
5276;DHT22;2661;50.786;12.728;2023-03-20T06:03:50;5.90;1.00
5276;DHT22;2661;50.786;12.728;2023-03-20T06:06:16;6.00;1.00
5276;DHT22;2661;50.786;12.728;2023-03-20T06:08:43;6.10;1.00
5276;DHT22;2661;50.786;12.728;2023-03-20T06:11:09;6.10;1.00
5276;DHT22;2661;50.786;12.728;2023-03-20T06:13:37;6.20;96.40
5276;DHT22;2661;50.786;12.728;2023-03-20T06:16:03;6.30;99.90
5276;DHT22;2661;50.786;12.728;2023-03-20T06:18:30;6.30;99.90
5276;DHT22;2661;50.786;12.728;2023-03-20T06:20:57;6.40;99.90
5276;DHT22;2661;50.786;12.728;2023-03-20T06:23:24;6.40;99.90
5276;DHT22;2661;50.786;12.728;2023-03-20T06:25:51;6.40;1.00
5276;DHT22;2661;50.786;12.728;2023-03-20T06:28:17;6.50;1.00
5276;DHT22;2661;50.786;12.728;2023-03-20T06:30:44;6.50;1.00
5276;DHT22;2661;50.786;12.728;2023-03-20T06:33:11;6.60;1.00
5276;DHT22;2661;50.786;12.728;2023-03-20T06:35:37;6.70;99.90
5276;DHT22;2661;50.786;12.728;2023-03-20T06:38:05;6.70;99.90
5276;DHT22;2661;50.786;12.728;2023-03-20T06:40:31;6.70;16.30
5276;DHT22;2661;50.786;12.728;2023-03-20T06:42:58;6.80;29.20
5276;DHT22;2661;50.786;12.728;2023-03-20T06:45:24;6.90;99.90
5276;DHT22;2661;50.786;12.728;2023-03-20T06:47:51;7.00;1.00
5276;DHT22;2661;50.786;12.728;2023-03-20T06:50:18;7.10;1.00
5276;DHT22;2661;50.786;12.728;2023-03-20T06:52:44;7.30;1.00
5276;DHT22;2661;50.786;12.728;2023-03-20T06:55:11;7.40;1.00
5276;DHT22;2661;50.786;12.728;2023-03-20T06:57:38;7.50;1.00
5276;DHT22;2661;50.786;12.728;2023-03-20T07:00:05;7.70;1.00
5276;DHT22;2661;50.786;12.728;2023-03-20T07:02:33;7.80;1.00
5276;DHT22;2661;50.786;12.728;2023-03-20T07:04:59;8.00;1.00
5276;DHT22;2661;50.786;12.728;2023-03-20T07:07:26;8.10;1.00
5276;DHT22;2661;50.786;12.728;2023-03-20T07:09:53;8.30;1.00
5276;DHT22;2661;50.786;12.728;2023-03-20T07:12:19;8.40;1.00
5276;DHT22;2661;50.786;12.728;2023-03-20T07:14:46;8.50;1.00
5276;DHT22;2661;50.786;12.728;2023-03-20T07:17:12;8.50;99.90
5276;DHT22;2661;50.786;12.728;2023-03-20T07:19:39;8.60;50.00
5276;DHT22;2661;50.786;12.728;2023-03-20T07:22:07;8.60;42.70
5276;DHT22;2661;50.786;12.728;2023-03-20T07:24:34;8.60;20.20
5276;DHT22;2661;50.786;12.728;2023-03-20T07:27:00;8.60;1.00
5276;DHT22;2661;50.786;12.728;2023-03-20T07:29:27;8.60;1.00
5276;DHT22;2661;50.786;12.728;2023-03-20T07:31:54;8.60;1.00
5276;DHT22;2661;50.786;12.728;2023-03-20T07:34:21;8.60;1.00
5276;DHT22;2661;50.786;12.728;2023-03-20T07:36:47;8.60;1.00
5276;DHT22;2661;50.786;12.728;2023-03-20T07:39:14;8.60;1.00
5276;DHT22;2661;50.786;12.728;2023-03-20T07:41:42;8.70;1.00
5276;DHT22;2661;50.786;12.728;2023-03-20T07:44:08;8.70;1.00
5276;DHT22;2661;50.786;12.728;2023-03-20T07:46:35;8.80;1.00
5276;DHT22;2661;50.786;12.728;2023-03-20T07:49:02;8.80;1.00
5276;DHT22;2661;50.786;12.728;2023-03-20T07:51:28;8.90;1.00
5276;DHT22;2661;50.786;12.728;2023-03-20T07:53:55;9.00;1.00
5276;DHT22;2661;50.786;12.728;2023-03-20T07:56:22;9.00;1.00
5276;DHT22;2661;50.786;12.728;2023-03-20T07:58:48;9.20;1.00
5276;DHT22;2661;50.786;12.728;2023-03-20T08:01:15;9.30;99.90
5276;DHT22;2661;50.786;12.728;2023-03-20T08:03:41;9.50;99.90
5276;DHT22;2661;50.786;12.728;2023-03-20T08:06:09;9.60;1.00
5276;DHT22;2661;50.786;12.728;2023-03-20T08:08:35;9.70;1.00
5276;DHT22;2661;50.786;12.728;2023-03-20T08:11:02;9.80;1.00
5276;DHT22;2661;50.786;12.728;2023-03-20T08:13:29;10.00;99.90
5276;DHT22;2661;50.786;12.728;2023-03-20T08:15:56;10.10;99.90
5276;DHT22;2661;50.786;12.728;2023-03-20T08:18:22;10.10;99.90
5276;DHT22;2661;50.786;12.728;2023-03-20T08:20:49;10.10;99.90
5276;DHT22;2661;50.786;12.728;2023-03-20T08:23:16;10.00;99.90
5276;DHT22;2661;50.786;12.728;2023-03-20T08:25:49;10.00;99.90
5276;DHT22;2661;50.786;12.728;2023-03-20T08:28:16;9.90;99.90
5276;DHT22;2661;50.786;12.728;2023-03-20T08:30:43;9.90;99.90
5276;DHT22;2661;50.786;12.728;2023-03-20T08:33:10;9.90;99.90
5276;DHT22;2661;50.786;12.728;2023-03-20T08:35:37;9.90;99.90
5276;DHT22;2661;50.786;12.728;2023-03-20T08:38:03;9.90;99.90
5276;DHT22;2661;50.786;12.728;2023-03-20T08:40:31;9.90;99.90
5276;DHT22;2661;50.786;12.728;2023-03-20T08:42:57;9.80;99.90
5276;DHT22;2661;50.786;12.728;2023-03-20T08:45:24;9.80;99.90
5276;DHT22;2661;50.786;12.728;2023-03-20T08:47:51;9.80;99.90
5276;DHT22;2661;50.786;12.728;2023-03-20T08:50:18;9.70;99.90
5276;DHT22;2661;50.786;12.728;2023-03-20T08:52:45;9.70;99.90
5276;DHT22;2661;50.786;12.728;2023-03-20T08:55:12;9.70;99.90
5276;DHT22;2661;50.786;12.728;2023-03-20T08:57:40;9.80;99.90
5276;DHT22;2661;50.786;12.728;2023-03-20T09:00:07;9.90;99.90
5276;DHT22;2661;50.786;12.728;2023-03-20T09:02:34;10.00;99.90
5276;DHT22;2661;50.786;12.728;2023-03-20T09:05:01;10.20;99.90
5276;DHT22;2661;50.786;12.728;2023-03-20T09:07:28;10.30;99.90
5276;DHT22;2661;50.786;12.728;2023-03-20T09:09:54;10.50;99.90
5276;DHT22;2661;50.786;12.728;2023-03-20T09:12:21;10.70;99.90
5276;DHT22;2661;50.786;12.728;2023-03-20T09:14:47;10.80;99.90
5276;DHT22;2661;50.786;12.728;2023-03-20T09:17:14;10.90;99.90
5276;DHT22;2661;50.786;12.728;2023-03-20T09:19:41;11.10;99.90
5276;DHT22;2661;50.786;12.728;2023-03-20T09:22:13;11.20;99.90
5276;DHT22;2661;50.786;12.728;2023-03-20T09:24:40;11.30;99.90
5276;DHT22;2661;50.786;12.728;2023-03-20T09:27:07;11.30;99.90
5276;DHT22;2661;50.786;12.728;2023-03-20T09:29:33;11.50;99.90
5276;DHT22;2661;50.786;12.728;2023-03-20T09:32:00;11.70;99.90
5276;DHT22;2661;50.786;12.728;2023-03-20T09:34:27;11.70;99.90
5276;DHT22;2661;50.786;12.728;2023-03-20T09:36:54;11.90;99.90
5276;DHT22;2661;50.786;12.728;2023-03-20T09:39:21;11.90;99.90
5276;DHT22;2661;50.786;12.728;2023-03-20T09:41:48;12.00;99.90
5276;DHT22;2661;50.786;12.728;2023-03-20T09:44:36;12.10;99.90
5276;DHT22;2661;50.786;12.728;2023-03-20T09:49:52;12.20;99.90
5276;DHT22;2661;50.786;12.728;2023-03-20T09:52:34;12.30;99.90
5276;DHT22;2661;50.786;12.728;2023-03-20T09:55:05;12.30;99.90
5276;DHT22;2661;50.786;12.728;2023-03-20T09:57:34;12.40;99.90
5276;DHT22;2661;50.786;12.728;2023-03-20T10:00:09;12.40;99.90
5276;DHT22;2661;50.786;12.728;2023-03-20T10:05:05;12.40;99.90
5276;DHT22;2661;50.786;12.728;2023-03-20T10:07:41;12.40;99.90
5276;DHT22;2661;50.786;12.728;2023-03-20T10:10:11;12.40;99.90
5276;DHT22;2661;50.786;12.728;2023-03-20T10:12:56;12.40;99.90
5276;DHT22;2661;50.786;12.728;2023-03-20T10:15:46;12.50;99.90
5276;DHT22;2661;50.786;12.728;2023-03-20T10:18:21;12.60;99.90
5276;DHT22;2661;50.786;12.728;2023-03-20T10:23:32;12.90;99.90
5276;DHT22;2661;50.786;12.728;2023-03-20T10:26:18;12.90;99.90
5276;DHT22;2661;50.786;12.728;2023-03-20T10:31:19;12.80;99.90
5276;DHT22;2661;50.786;12.728;2023-03-20T10:34:07;12.80;99.90
5276;DHT22;2661;50.786;12.728;2023-03-20T10:36:43;12.60;99.90
5276;DHT22;2661;50.786;12.728;2023-03-20T10:39:25;12.40;99.90
5276;DHT22;2661;50.786;12.728;2023-03-20T10:41:55;12.20;99.90
5276;DHT22;2661;50.786;12.728;2023-03-20T10:44:26;12.10;99.90
5276;DHT22;2661;50.786;12.728;2023-03-20T10:46:54;12.00;99.90
5276;DHT22;2661;50.786;12.728;2023-03-20T10:49:28;11.90;99.90
5276;DHT22;2661;50.786;12.728;2023-03-20T10:52:00;11.90;99.90
5276;DHT22;2661;50.786;12.728;2023-03-20T10:54:34;12.00;99.90
5276;DHT22;2661;50.786;12.728;2023-03-20T10:57:02;12.00;99.90
5276;DHT22;2661;50.786;12.728;2023-03-20T10:59:32;12.10;99.90
5276;DHT22;2661;50.786;12.728;2023-03-20T11:02:00;12.30;99.90
5276;DHT22;2661;50.786;12.728;2023-03-20T11:04:26;12.50;99.90
5276;DHT22;2661;50.786;12.728;2023-03-20T11:07:00;12.50;99.90
5276;DHT22;2661;50.786;12.728;2023-03-20T11:09:28;12.50;99.90
5276;DHT22;2661;50.786;12.728;2023-03-20T11:11:57;12.70;99.90
5276;DHT22;2661;50.786;12.728;2023-03-20T11:14:26;12.70;99.90
5276;DHT22;2661;50.786;12.728;2023-03-20T11:16:54;12.80;99.90
5276;DHT22;2661;50.786;12.728;2023-03-20T11:19:22;12.80;99.90
5276;DHT22;2661;50.786;12.728;2023-03-20T11:21:50;12.70;99.90
5276;DHT22;2661;50.786;12.728;2023-03-20T11:27:13;12.90;99.90
5276;DHT22;2661;50.786;12.728;2023-03-20T11:29:40;12.90;99.90
5276;DHT22;2661;50.786;12.728;2023-03-20T11:34:37;13.00;99.90
5276;DHT22;2661;50.786;12.728;2023-03-20T11:37:12;13.00;99.90
5276;DHT22;2661;50.786;12.728;2023-03-20T11:39:55;12.90;99.90
5276;DHT22;2661;50.786;12.728;2023-03-20T11:42:24;12.80;99.90
5276;DHT22;2661;50.786;12.728;2023-03-20T11:44:57;12.60;99.90
5276;DHT22;2661;50.786;12.728;2023-03-20T11:47:25;12.50;99.90
5276;DHT22;2661;50.786;12.728;2023-03-20T11:49:53;12.40;99.90
5276;DHT22;2661;50.786;12.728;2023-03-20T11:52:21;12.30;99.90
5276;DHT22;2661;50.786;12.728;2023-03-20T11:54:51;12.30;99.90
5276;DHT22;2661;50.786;12.728;2023-03-20T11:57:33;12.10;99.90
5276;DHT22;2661;50.786;12.728;2023-03-20T12:00:04;11.90;99.90
5276;DHT22;2661;50.786;12.728;2023-03-20T12:02:31;11.50;99.90
5276;DHT22;2661;50.786;12.728;2023-03-20T12:04:59;11.20;99.90
5276;DHT22;2661;50.786;12.728;2023-03-20T12:07:30;10.90;99.90
5276;DHT22;2661;50.786;12.728;2023-03-20T12:12:38;10.90;99.90
5276;DHT22;2661;50.786;12.728;2023-03-20T12:15:13;11.00;99.90
5276;DHT22;2661;50.786;12.728;2023-03-20T12:22:49;11.20;99.90
5276;DHT22;2661;50.786;12.728;2023-03-20T12:25:19;11.20;99.90
5276;DHT22;2661;50.786;12.728;2023-03-20T12:27:48;11.20;99.90
5276;DHT22;2661;50.786;12.728;2023-03-20T12:30:18;11.10;99.90
5276;DHT22;2661;50.786;12.728;2023-03-20T12:32:55;11.10;99.90
5276;DHT22;2661;50.786;12.728;2023-03-20T12:35:28;11.00;99.90
5276;DHT22;2661;50.786;12.728;2023-03-20T12:37:56;11.00;99.90
5276;DHT22;2661;50.786;12.728;2023-03-20T12:40:25;11.00;99.90
5276;DHT22;2661;50.786;12.728;2023-03-20T12:43:03;11.00;99.90
5276;DHT22;2661;50.786;12.728;2023-03-20T12:45:32;11.00;99.90
5276;DHT22;2661;50.786;12.728;2023-03-20T12:48:19;11.00;99.90
5276;DHT22;2661;50.786;12.728;2023-03-20T12:53:28;11.00;99.90
5276;DHT22;2661;50.786;12.728;2023-03-20T12:56:02;10.90;99.90
5276;DHT22;2661;50.786;12.728;2023-03-20T12:58:47;10.90;99.90
5276;DHT22;2661;50.786;12.728;2023-03-20T13:01:20;10.90;99.90
5276;DHT22;2661;50.786;12.728;2023-03-20T13:03:53;10.80;99.90
5276;DHT22;2661;50.786;12.728;2023-03-20T13:06:26;11.00;99.90
5276;DHT22;2661;50.786;12.728;2023-03-20T13:11:41;11.10;99.90
5276;DHT22;2661;50.786;12.728;2023-03-20T13:14:19;11.20;99.90
5276;DHT22;2661;50.786;12.728;2023-03-20T13:17:10;11.20;99.90
5276;DHT22;2661;50.786;12.728;2023-03-20T13:19:41;11.30;99.90
5276;DHT22;2661;50.786;12.728;2023-03-20T13:22:21;11.30;99.90
5276;DHT22;2661;50.786;12.728;2023-03-20T13:24:53;11.40;99.90
5276;DHT22;2661;50.786;12.728;2023-03-20T13:29:49;11.40;99.90
5276;DHT22;2661;50.786;12.728;2023-03-20T13:39:58;11.30;99.90
5276;DHT22;2661;50.786;12.728;2023-03-20T13:42:28;11.20;99.90
5276;DHT22;2661;50.786;12.728;2023-03-20T13:44:58;11.20;99.90
5276;DHT22;2661;50.786;12.728;2023-03-20T13:47:27;11.10;99.90
5276;DHT22;2661;50.786;12.728;2023-03-20T13:49:59;11.10;99.90
5276;DHT22;2661;50.786;12.728;2023-03-20T13:52:34;11.00;99.90
5276;DHT22;2661;50.786;12.728;2023-03-20T13:55:13;11.00;99.90
5276;DHT22;2661;50.786;12.728;2023-03-20T13:57:52;10.90;99.90
5276;DHT22;2661;50.786;12.728;2023-03-20T14:00:34;10.90;99.90
5276;DHT22;2661;50.786;12.728;2023-03-20T14:03:44;10.70;99.90
5276;DHT22;2661;50.786;12.728;2023-03-20T14:05:53;10.70;99.90
5276;DHT22;2661;50.786;12.728;2023-03-20T14:13:29;10.60;99.90
5276;DHT22;2661;50.786;12.728;2023-03-20T14:15:57;10.80;99.90
5276;DHT22;2661;50.786;12.728;2023-03-20T14:18:26;10.70;99.90
5276;DHT22;2661;50.786;12.728;2023-03-20T14:20:54;10.70;99.90
5276;DHT22;2661;50.786;12.728;2023-03-20T14:23:28;10.70;99.90
5276;DHT22;2661;50.786;12.728;2023-03-20T14:25:57;10.70;99.90
5276;DHT22;2661;50.786;12.728;2023-03-20T14:28:27;10.60;99.90
5276;DHT22;2661;50.786;12.728;2023-03-20T14:31:10;10.50;99.90
5276;DHT22;2661;50.786;12.728;2023-03-20T14:33:43;10.40;99.90
5276;DHT22;2661;50.786;12.728;2023-03-20T14:36:11;10.30;1.00
5276;DHT22;2661;50.786;12.728;2023-03-20T14:41:23;10.10;99.90
5276;DHT22;2661;50.786;12.728;2023-03-20T14:46:32;9.70;1.00
5276;DHT22;2661;50.786;12.728;2023-03-20T14:49:26;9.60;1.00
5276;DHT22;2661;50.786;12.728;2023-03-20T14:51:59;9.50;99.90
5276;DHT22;2661;50.786;12.728;2023-03-20T14:54:34;9.60;99.90
5276;DHT22;2661;50.786;12.728;2023-03-20T14:57:08;9.60;1.00
5276;DHT22;2661;50.786;12.728;2023-03-20T14:59:35;9.60;92.70
5276;DHT22;2661;50.786;12.728;2023-03-20T15:02:02;9.70;99.90
5276;DHT22;2661;50.786;12.728;2023-03-20T15:04:38;9.70;99.90
5276;DHT22;2661;50.786;12.728;2023-03-20T15:07:15;9.80;99.90
5276;DHT22;2661;50.786;12.728;2023-03-20T15:09:44;9.90;1.00
5276;DHT22;2661;50.786;12.728;2023-03-20T15:12:12;9.90;1.00
5276;DHT22;2661;50.786;12.728;2023-03-20T15:14:41;9.80;99.90
5276;DHT22;2661;50.786;12.728;2023-03-20T15:17:18;9.80;99.90
5276;DHT22;2661;50.786;12.728;2023-03-20T15:19:45;9.90;99.90
5276;DHT22;2661;50.786;12.728;2023-03-20T15:22:16;9.90;50.50
5276;DHT22;2661;50.786;12.728;2023-03-20T15:24:53;9.90;1.00
5276;DHT22;2661;50.786;12.728;2023-03-20T15:27:21;9.80;1.00
5276;DHT22;2661;50.786;12.728;2023-03-20T15:29:50;9.70;99.90
5276;DHT22;2661;50.786;12.728;2023-03-20T15:32:17;9.60;1.00
5276;DHT22;2661;50.786;12.728;2023-03-20T15:34:45;9.60;1.00
5276;DHT22;2661;50.786;12.728;2023-03-20T15:37:16;9.50;99.90
5276;DHT22;2661;50.786;12.728;2023-03-20T15:39:46;9.50;1.00
5276;DHT22;2661;50.786;12.728;2023-03-20T15:42:18;9.50;1.00
5276;DHT22;2661;50.786;12.728;2023-03-20T15:44:46;9.50;1.00
5276;DHT22;2661;50.786;12.728;2023-03-20T15:47:14;9.50;1.00
5276;DHT22;2661;50.786;12.728;2023-03-20T15:49:53;9.40;7.40
5276;DHT22;2661;50.786;12.728;2023-03-20T15:52:30;9.40;99.90
5276;DHT22;2661;50.786;12.728;2023-03-20T15:54:59;9.40;99.90
5276;DHT22;2661;50.786;12.728;2023-03-20T15:57:31;9.40;99.90
5276;DHT22;2661;50.786;12.728;2023-03-20T16:00:02;9.40;1.00
5276;DHT22;2661;50.786;12.728;2023-03-20T16:02:33;9.40;1.00
5276;DHT22;2661;50.786;12.728;2023-03-20T16:05:00;9.40;1.00
5276;DHT22;2661;50.786;12.728;2023-03-20T16:07:28;9.50;1.00
5276;DHT22;2661;50.786;12.728;2023-03-20T16:09:57;9.50;1.00
5276;DHT22;2661;50.786;12.728;2023-03-20T16:12:24;9.50;1.00
5276;DHT22;2661;50.786;12.728;2023-03-20T16:14:53;9.50;1.00
5276;DHT22;2661;50.786;12.728;2023-03-20T16:17:20;9.40;1.00
5276;DHT22;2661;50.786;12.728;2023-03-20T16:19:47;9.40;1.00
5276;DHT22;2661;50.786;12.728;2023-03-20T16:24:41;9.40;1.00
5276;DHT22;2661;50.786;12.728;2023-03-20T16:27:11;9.30;1.00
5276;DHT22;2661;50.786;12.728;2023-03-20T16:29:41;9.40;1.00
5276;DHT22;2661;50.786;12.728;2023-03-20T16:32:16;9.30;1.00
5276;DHT22;2661;50.786;12.728;2023-03-20T16:34:45;9.30;1.00
5276;DHT22;2661;50.786;12.728;2023-03-20T16:37:36;9.30;1.00
5276;DHT22;2661;50.786;12.728;2023-03-20T16:40:09;9.30;40.90
5276;DHT22;2661;50.786;12.728;2023-03-20T16:42:38;9.20;99.90
5276;DHT22;2661;50.786;12.728;2023-03-20T16:45:05;9.20;99.90
5276;DHT22;2661;50.786;12.728;2023-03-20T16:47:37;9.20;99.90
5276;DHT22;2661;50.786;12.728;2023-03-20T16:52:34;9.20;99.90
5276;DHT22;2661;50.786;12.728;2023-03-20T16:55:01;9.20;1.00
5276;DHT22;2661;50.786;12.728;2023-03-20T16:57:32;9.10;1.00
5276;DHT22;2661;50.786;12.728;2023-03-20T17:00:06;9.10;1.00
5276;DHT22;2661;50.786;12.728;2023-03-20T17:02:37;9.10;1.00
5276;DHT22;2661;50.786;12.728;2023-03-20T17:05:10;9.10;1.00
5276;DHT22;2661;50.786;12.728;2023-03-20T17:07:38;9.00;1.00
5276;DHT22;2661;50.786;12.728;2023-03-20T17:10:20;9.00;1.00
5276;DHT22;2661;50.786;12.728;2023-03-20T17:12:49;9.00;1.00
5276;DHT22;2661;50.786;12.728;2023-03-20T17:15:21;9.00;1.00
5276;DHT22;2661;50.786;12.728;2023-03-20T17:17:50;9.00;1.00
5276;DHT22;2661;50.786;12.728;2023-03-20T17:20:21;9.00;1.00
5276;DHT22;2661;50.786;12.728;2023-03-20T17:22:51;8.90;1.00
5276;DHT22;2661;50.786;12.728;2023-03-20T17:25:18;8.90;1.00
5276;DHT22;2661;50.786;12.728;2023-03-20T17:27:45;8.90;1.00
5276;DHT22;2661;50.786;12.728;2023-03-20T17:32:40;8.90;1.00
5276;DHT22;2661;50.786;12.728;2023-03-20T17:35:07;8.80;1.00
5276;DHT22;2661;50.786;12.728;2023-03-20T17:37:34;8.80;1.00
5276;DHT22;2661;50.786;12.728;2023-03-20T17:40:02;8.80;1.00
5276;DHT22;2661;50.786;12.728;2023-03-20T17:42:32;8.90;1.00
5276;DHT22;2661;50.786;12.728;2023-03-20T17:44:59;8.80;1.00
5276;DHT22;2661;50.786;12.728;2023-03-20T17:47:26;8.80;1.00